sensor_id;sensor_type;location;lat;lon;timestamp;temperature;humidity
79012;DHT22;68418;44.714;37.756;2023-04-03T00:00:09;21.65;51.36
79012;DHT22;68418;44.714;37.756;2023-04-03T00:01:11;21.67;51.40
79012;DHT22;68418;44.714;37.756;2023-04-03T00:02:12;21.67;51.42
79012;DHT22;68418;44.714;37.756;2023-04-03T00:03:13;21.65;51.39
79012;DHT22;68418;44.714;37.756;2023-04-03T00:04:15;21.65;51.39
79012;DHT22;68418;44.714;37.756;2023-04-03T00:05:16;21.65;51.46
79012;DHT22;68418;44.714;37.756;2023-04-03T00:06:17;21.67;51.39
79012;DHT22;68418;44.714;37.756;2023-04-03T00:07:19;21.64;51.39
79012;DHT22;68418;44.714;37.756;2023-04-03T00:08:20;21.65;51.38
79012;DHT22;68418;44.714;37.756;2023-04-03T00:09:22;21.65;51.40
79012;DHT22;68418;44.714;37.756;2023-04-03T00:10:23;21.67;51.40
79012;DHT22;68418;44.714;37.756;2023-04-03T00:11:25;21.65;51.35
79012;DHT22;68418;44.714;37.756;2023-04-03T00:12:27;21.65;51.37
79012;DHT22;68418;44.714;37.756;2023-04-03T00:13:28;21.65;51.38
79012;DHT22;68418;44.714;37.756;2023-04-03T00:14:29;21.65;51.36
79012;DHT22;68418;44.714;37.756;2023-04-03T00:15:31;21.68;51.29
79012;DHT22;68418;44.714;37.756;2023-04-03T00:16:33;21.65;51.39
79012;DHT22;68418;44.714;37.756;2023-04-03T00:17:34;21.65;51.36
79012;DHT22;68418;44.714;37.756;2023-04-03T00:18:36;21.67;51.37
79012;DHT22;68418;44.714;37.756;2023-04-03T00:19:38;21.65;51.37
79012;DHT22;68418;44.714;37.756;2023-04-03T00:20:39;21.62;51.29
79012;DHT22;68418;44.714;37.756;2023-04-03T00:21:41;21.68;51.33
79012;DHT22;68418;44.714;37.756;2023-04-03T00:22:42;21.65;51.34
79012;DHT22;68418;44.714;37.756;2023-04-03T00:23:43;21.65;51.35
79012;DHT22;68418;44.714;37.756;2023-04-03T00:24:44;21.67;51.34
79012;DHT22;68418;44.714;37.756;2023-04-03T00:25:46;21.65;51.31
79012;DHT22;68418;44.714;37.756;2023-04-03T00:26:47;21.67;51.30
79012;DHT22;68418;44.714;37.756;2023-04-03T00:27:48;21.67;51.33
79012;DHT22;68418;44.714;37.756;2023-04-03T00:28:49;21.69;51.27
79012;DHT22;68418;44.714;37.756;2023-04-03T00:29:51;21.65;51.27
79012;DHT22;68418;44.714;37.756;2023-04-03T00:30:52;21.65;51.34
79012;DHT22;68418;44.714;37.756;2023-04-03T00:31:54;21.67;51.31
79012;DHT22;68418;44.714;37.756;2023-04-03T00:32:55;21.65;51.33
79012;DHT22;68418;44.714;37.756;2023-04-03T00:33:56;21.69;51.32
79012;DHT22;68418;44.714;37.756;2023-04-03T00:34:59;21.68;51.22
79012;DHT22;68418;44.714;37.756;2023-04-03T00:36:05;21.67;51.27
79012;DHT22;68418;44.714;37.756;2023-04-03T00:37:07;21.67;51.23
79012;DHT22;68418;44.714;37.756;2023-04-03T00:38:08;21.67;51.19
79012;DHT22;68418;44.714;37.756;2023-04-03T00:39:10;21.68;51.25
79012;DHT22;68418;44.714;37.756;2023-04-03T00:40:13;21.67;51.20
79012;DHT22;68418;44.714;37.756;2023-04-03T00:41:14;21.68;51.33
79012;DHT22;68418;44.714;37.756;2023-04-03T00:42:16;21.68;51.23
79012;DHT22;68418;44.714;37.756;2023-04-03T00:43:22;21.65;51.28
79012;DHT22;68418;44.714;37.756;2023-04-03T00:45:35;21.67;51.37
79012;DHT22;68418;44.714;37.756;2023-04-03T00:46:37;21.69;51.22
79012;DHT22;68418;44.714;37.756;2023-04-03T00:47:39;21.68;51.21
79012;DHT22;68418;44.714;37.756;2023-04-03T00:48:43;21.67;51.19
79012;DHT22;68418;44.714;37.756;2023-04-03T00:49:45;21.68;51.24
79012;DHT22;68418;44.714;37.756;2023-04-03T00:50:47;21.69;51.24
79012;DHT22;68418;44.714;37.756;2023-04-03T00:51:49;21.69;51.21
79012;DHT22;68418;44.714;37.756;2023-04-03T00:52:50;21.68;51.26
79012;DHT22;68418;44.714;37.756;2023-04-03T00:53:58;21.68;51.23
79012;DHT22;68418;44.714;37.756;2023-04-03T00:55:04;21.69;51.24
79012;DHT22;68418;44.714;37.756;2023-04-03T00:56:09;21.69;51.54
79012;DHT22;68418;44.714;37.756;2023-04-03T00:57:12;21.69;51.24
79012;DHT22;68418;44.714;37.756;2023-04-03T00:58:15;21.67;51.28
79012;DHT22;68418;44.714;37.756;2023-04-03T00:59:28;21.67;51.31
79012;DHT22;68418;44.714;37.756;2023-04-03T01:00:31;21.68;51.20
79012;DHT22;68418;44.714;37.756;2023-04-03T01:01:32;21.67;51.21
79012;DHT22;68418;44.714;37.756;2023-04-03T01:02:34;21.67;51.30
79012;DHT22;68418;44.714;37.756;2023-04-03T01:03:38;21.67;51.26
79012;DHT22;68418;44.714;37.756;2023-04-03T01:04:42;21.68;51.30
79012;DHT22;68418;44.714;37.756;2023-04-03T01:05:43;21.68;51.23
79012;DHT22;68418;44.714;37.756;2023-04-03T01:06:45;21.68;51.16
79012;DHT22;68418;44.714;37.756;2023-04-03T01:07:47;21.67;51.20
79012;DHT22;68418;44.714;37.756;2023-04-03T01:08:50;21.68;51.20
79012;DHT22;68418;44.714;37.756;2023-04-03T01:09:56;21.71;51.14
79012;DHT22;68418;44.714;37.756;2023-04-03T01:10:58;21.67;51.18
79012;DHT22;68418;44.714;37.756;2023-04-03T01:12:17;21.69;51.14
79012;DHT22;68418;44.714;37.756;2023-04-03T01:13:25;21.68;51.14
79012;DHT22;68418;44.714;37.756;2023-04-03T01:14:26;21.68;51.14
79012;DHT22;68418;44.714;37.756;2023-04-03T01:15:28;21.71;51.24
79012;DHT22;68418;44.714;37.756;2023-04-03T01:16:35;21.69;51.17
79012;DHT22;68418;44.714;37.756;2023-04-03T01:18:42;21.71;51.10
79012;DHT22;68418;44.714;37.756;2023-04-03T01:19:47;21.68;51.09
79012;DHT22;68418;44.714;37.756;2023-04-03T01:22:10;21.71;51.07
79012;DHT22;68418;44.714;37.756;2023-04-03T01:24:37;21.67;51.20
79012;DHT22;68418;44.714;37.756;2023-04-03T01:25:52;21.67;51.09
79012;DHT22;68418;44.714;37.756;2023-04-03T01:26:54;21.67;51.16
79012;DHT22;68418;44.714;37.756;2023-04-03T01:27:56;21.68;51.12
79012;DHT22;68418;44.714;37.756;2023-04-03T01:28:59;21.69;51.02
79012;DHT22;68418;44.714;37.756;2023-04-03T01:30:01;21.67;51.26
79012;DHT22;68418;44.714;37.756;2023-04-03T01:31:20;21.64;51.35
79012;DHT22;68418;44.714;37.756;2023-04-03T01:32:23;21.62;51.51
79012;DHT22;68418;44.714;37.756;2023-04-03T01:33:24;21.58;51.63
79012;DHT22;68418;44.714;37.756;2023-04-03T01:34:27;21.53;51.42
79012;DHT22;68418;44.714;37.756;2023-04-03T01:35:29;21.53;52.11
79012;DHT22;68418;44.714;37.756;2023-04-03T01:36:31;21.48;51.47
79012;DHT22;68418;44.714;37.756;2023-04-03T01:37:33;21.48;51.85
79012;DHT22;68418;44.714;37.756;2023-04-03T01:38:34;21.47;51.42
79012;DHT22;68418;44.714;37.756;2023-04-03T01:39:35;21.43;51.99
79012;DHT22;68418;44.714;37.756;2023-04-03T01:40:37;21.41;51.99
79012;DHT22;68418;44.714;37.756;2023-04-03T01:41:38;21.39;51.98
79012;DHT22;68418;44.714;37.756;2023-04-03T01:42:48;21.39;52.19
79012;DHT22;68418;44.714;37.756;2023-04-03T01:43:49;21.37;52.70
79012;DHT22;68418;44.714;37.756;2023-04-03T01:44:51;21.37;52.52
79012;DHT22;68418;44.714;37.756;2023-04-03T01:45:52;21.34;52.37
79012;DHT22;68418;44.714;37.756;2023-04-03T01:46:55;21.33;52.56
79012;DHT22;68418;44.714;37.756;2023-04-03T01:47:58;21.31;52.21
79012;DHT22;68418;44.714;37.756;2023-04-03T01:49:00;21.34;52.47
79012;DHT22;68418;44.714;37.756;2023-04-03T01:50:02;21.31;52.48
79012;DHT22;68418;44.714;37.756;2023-04-03T01:51:06;21.31;52.85
79012;DHT22;68418;44.714;37.756;2023-04-03T01:52:08;21.30;52.55
79012;DHT22;68418;44.714;37.756;2023-04-03T01:53:09;21.31;52.50
79012;DHT22;68418;44.714;37.756;2023-04-03T01:54:10;21.29;52.18
79012;DHT22;68418;44.714;37.756;2023-04-03T01:55:12;21.29;52.70
79012;DHT22;68418;44.714;37.756;2023-04-03T01:56:13;21.30;52.27
79012;DHT22;68418;44.714;37.756;2023-04-03T01:57:16;21.29;52.38
79012;DHT22;68418;44.714;37.756;2023-04-03T01:58:18;21.30;52.01
79012;DHT22;68418;44.714;37.756;2023-04-03T01:59:19;21.31;52.44
79012;DHT22;68418;44.714;37.756;2023-04-03T02:00:21;21.27;52.53
79012;DHT22;68418;44.714;37.756;2023-04-03T02:01:22;21.29;52.38
79012;DHT22;68418;44.714;37.756;2023-04-03T02:02:24;21.27;52.36
79012;DHT22;68418;44.714;37.756;2023-04-03T02:03:26;21.24;52.21
79012;DHT22;68418;44.714;37.756;2023-04-03T02:04:28;21.26;52.41
79012;DHT22;68418;44.714;37.756;2023-04-03T02:05:29;21.26;52.35
79012;DHT22;68418;44.714;37.756;2023-04-03T02:06:31;21.26;52.19
79012;DHT22;68418;44.714;37.756;2023-04-03T02:07:32;21.24;52.30
79012;DHT22;68418;44.714;37.756;2023-04-03T02:08:33;21.24;52.53
79012;DHT22;68418;44.714;37.756;2023-04-03T02:09:35;21.24;52.51
79012;DHT22;68418;44.714;37.756;2023-04-03T02:10:37;21.26;52.51
79012;DHT22;68418;44.714;37.756;2023-04-03T02:11:38;21.26;52.33
79012;DHT22;68418;44.714;37.756;2023-04-03T02:12:39;21.23;52.54
79012;DHT22;68418;44.714;37.756;2023-04-03T02:13:41;21.24;52.64
79012;DHT22;68418;44.714;37.756;2023-04-03T02:14:42;21.24;52.38
79012;DHT22;68418;44.714;37.756;2023-04-03T02:15:46;21.23;52.27
79012;DHT22;68418;44.714;37.756;2023-04-03T02:16:51;21.24;52.63
79012;DHT22;68418;44.714;37.756;2023-04-03T02:17:52;21.23;52.40
79012;DHT22;68418;44.714;37.756;2023-04-03T02:18:54;21.23;52.10
79012;DHT22;68418;44.714;37.756;2023-04-03T02:19:55;21.20;52.07
79012;DHT22;68418;44.714;37.756;2023-04-03T02:20:58;21.23;52.68
79012;DHT22;68418;44.714;37.756;2023-04-03T02:22:04;21.20;52.39
79012;DHT22;68418;44.714;37.756;2023-04-03T02:23:06;21.22;52.22
79012;DHT22;68418;44.714;37.756;2023-04-03T02:24:07;21.22;52.57
79012;DHT22;68418;44.714;37.756;2023-04-03T02:25:09;21.22;52.61
79012;DHT22;68418;44.714;37.756;2023-04-03T02:26:13;21.19;52.21
79012;DHT22;68418;44.714;37.756;2023-04-03T02:27:15;21.20;52.42
79012;DHT22;68418;44.714;37.756;2023-04-03T02:28:16;21.20;52.45
79012;DHT22;68418;44.714;37.756;2023-04-03T02:29:18;21.20;52.50
79012;DHT22;68418;44.714;37.756;2023-04-03T02:30:19;21.20;52.25
79012;DHT22;68418;44.714;37.756;2023-04-03T02:31:20;21.19;52.52
79012;DHT22;68418;44.714;37.756;2023-04-03T02:32:22;21.20;52.42
79012;DHT22;68418;44.714;37.756;2023-04-03T02:33:24;21.19;52.44
79012;DHT22;68418;44.714;37.756;2023-04-03T02:34:25;21.20;52.42
79012;DHT22;68418;44.714;37.756;2023-04-03T02:35:27;21.19;52.41
79012;DHT22;68418;44.714;37.756;2023-04-03T02:36:31;21.20;52.42
79012;DHT22;68418;44.714;37.756;2023-04-03T02:37:34;21.22;52.31
79012;DHT22;68418;44.714;37.756;2023-04-03T02:38:35;21.19;52.28
79012;DHT22;68418;44.714;37.756;2023-04-03T02:39:37;21.19;52.70
79012;DHT22;68418;44.714;37.756;2023-04-03T02:40:38;21.22;52.71
79012;DHT22;68418;44.714;37.756;2023-04-03T02:41:40;21.19;52.54
79012;DHT22;68418;44.714;37.756;2023-04-03T02:42:47;21.20;52.31
79012;DHT22;68418;44.714;37.756;2023-04-03T02:43:48;21.18;52.17
79012;DHT22;68418;44.714;37.756;2023-04-03T02:44:50;21.18;52.26
79012;DHT22;68418;44.714;37.756;2023-04-03T02:45:52;21.19;52.46
79012;DHT22;68418;44.714;37.756;2023-04-03T02:46:53;21.20;52.54
79012;DHT22;68418;44.714;37.756;2023-04-03T02:47:54;21.19;52.46
79012;DHT22;68418;44.714;37.756;2023-04-03T02:48:55;21.18;52.27
79012;DHT22;68418;44.714;37.756;2023-04-03T02:49:57;21.19;52.38
79012;DHT22;68418;44.714;37.756;2023-04-03T02:50:58;21.19;52.48
79012;DHT22;68418;44.714;37.756;2023-04-03T02:51:59;21.16;52.25
79012;DHT22;68418;44.714;37.756;2023-04-03T02:53:01;21.18;52.62
79012;DHT22;68418;44.714;37.756;2023-04-03T02:54:02;21.19;52.42
79012;DHT22;68418;44.714;37.756;2023-04-03T02:55:07;21.18;52.47
79012;DHT22;68418;44.714;37.756;2023-04-03T02:56:09;21.16;52.42
79012;DHT22;68418;44.714;37.756;2023-04-03T02:57:10;21.16;52.16
79012;DHT22;68418;44.714;37.756;2023-04-03T02:58:11;21.19;52.65
79012;DHT22;68418;44.714;37.756;2023-04-03T02:59:12;21.18;52.47
79012;DHT22;68418;44.714;37.756;2023-04-03T03:00:15;21.16;52.51
79012;DHT22;68418;44.714;37.756;2023-04-03T03:01:16;21.18;52.43
79012;DHT22;68418;44.714;37.756;2023-04-03T03:02:18;21.14;52.28
79012;DHT22;68418;44.714;37.756;2023-04-03T03:03:19;21.16;52.51
79012;DHT22;68418;44.714;37.756;2023-04-03T03:04:21;21.18;52.47
79012;DHT22;68418;44.714;37.756;2023-04-03T03:05:22;21.16;52.44
79012;DHT22;68418;44.714;37.756;2023-04-03T03:06:23;21.16;52.40
79012;DHT22;68418;44.714;37.756;2023-04-03T03:07:25;21.16;52.12
79012;DHT22;68418;44.714;37.756;2023-04-03T03:08:26;21.16;52.31
79012;DHT22;68418;44.714;37.756;2023-04-03T03:09:28;21.16;52.39
79012;DHT22;68418;44.714;37.756;2023-04-03T03:10:30;21.18;52.12
79012;DHT22;68418;44.714;37.756;2023-04-03T03:11:31;21.16;52.36
79012;DHT22;68418;44.714;37.756;2023-04-03T03:12:33;21.13;52.33
79012;DHT22;68418;44.714;37.756;2023-04-03T03:13:34;21.16;52.34
79012;DHT22;68418;44.714;37.756;2023-04-03T03:14:35;21.16;52.27
79012;DHT22;68418;44.714;37.756;2023-04-03T03:15:37;21.16;52.18
79012;DHT22;68418;44.714;37.756;2023-04-03T03:16:38;21.13;52.19
79012;DHT22;68418;44.714;37.756;2023-04-03T03:17:39;21.16;52.37
79012;DHT22;68418;44.714;37.756;2023-04-03T03:18:41;21.14;52.58
79012;DHT22;68418;44.714;37.756;2023-04-03T03:19:42;21.14;52.70
79012;DHT22;68418;44.714;37.756;2023-04-03T03:20:44;21.14;52.33
79012;DHT22;68418;44.714;37.756;2023-04-03T03:21:45;21.16;52.28
79012;DHT22;68418;44.714;37.756;2023-04-03T03:22:46;21.14;52.10
79012;DHT22;68418;44.714;37.756;2023-04-03T03:23:48;21.14;52.43
79012;DHT22;68418;44.714;37.756;2023-04-03T03:24:49;21.12;52.11
79012;DHT22;68418;44.714;37.756;2023-04-03T03:25:59;21.12;52.25
79012;DHT22;68418;44.714;37.756;2023-04-03T03:27:00;21.14;52.44
79012;DHT22;68418;44.714;37.756;2023-04-03T03:28:01;21.09;52.37
79012;DHT22;68418;44.714;37.756;2023-04-03T03:29:03;21.10;52.18
79012;DHT22;68418;44.714;37.756;2023-04-03T03:30:05;21.10;52.40
79012;DHT22;68418;44.714;37.756;2023-04-03T03:31:08;21.09;52.49
79012;DHT22;68418;44.714;37.756;2023-04-03T03:32:11;21.10;52.74
79012;DHT22;68418;44.714;37.756;2023-04-03T03:33:13;21.10;52.47
79012;DHT22;68418;44.714;37.756;2023-04-03T03:34:14;21.07;52.35
79012;DHT22;68418;44.714;37.756;2023-04-03T03:35:15;21.07;52.44
79012;DHT22;68418;44.714;37.756;2023-04-03T03:36:16;21.09;52.43
79012;DHT22;68418;44.714;37.756;2023-04-03T03:37:18;21.07;52.16
79012;DHT22;68418;44.714;37.756;2023-04-03T03:38:19;21.06;52.62
79012;DHT22;68418;44.714;37.756;2023-04-03T03:39:21;21.07;52.68
79012;DHT22;68418;44.714;37.756;2023-04-03T03:40:22;21.06;52.81
79012;DHT22;68418;44.714;37.756;2023-04-03T03:41:23;21.04;52.35
79012;DHT22;68418;44.714;37.756;2023-04-03T03:42:25;21.04;52.87
79012;DHT22;68418;44.714;37.756;2023-04-03T03:43:27;21.07;52.53
79012;DHT22;68418;44.714;37.756;2023-04-03T03:44:29;21.07;52.43
79012;DHT22;68418;44.714;37.756;2023-04-03T03:45:30;21.09;52.22
79012;DHT22;68418;44.714;37.756;2023-04-03T03:46:32;21.09;51.91
79012;DHT22;68418;44.714;37.756;2023-04-03T03:47:33;21.06;51.79
79012;DHT22;68418;44.714;37.756;2023-04-03T03:48:34;21.06;51.99
79012;DHT22;68418;44.714;37.756;2023-04-03T03:49:36;21.04;51.74
79012;DHT22;68418;44.714;37.756;2023-04-03T03:50:38;21.04;51.75
79012;DHT22;68418;44.714;37.756;2023-04-03T03:51:39;21.06;52.08
79012;DHT22;68418;44.714;37.756;2023-04-03T03:52:41;21.04;51.90
79012;DHT22;68418;44.714;37.756;2023-04-03T03:53:43;21.06;51.83
79012;DHT22;68418;44.714;37.756;2023-04-03T03:54:48;21.04;51.95
79012;DHT22;68418;44.714;37.756;2023-04-03T03:55:50;21.04;51.89
79012;DHT22;68418;44.714;37.756;2023-04-03T03:56:54;21.10;51.56
79012;DHT22;68418;44.714;37.756;2023-04-03T03:57:57;21.16;51.50
79012;DHT22;68418;44.714;37.756;2023-04-03T03:58:59;21.19;51.52
79012;DHT22;68418;44.714;37.756;2023-04-03T04:00:00;21.23;51.34
79012;DHT22;68418;44.714;37.756;2023-04-03T04:01:04;21.30;51.71
79012;DHT22;68418;44.714;37.756;2023-04-03T04:02:08;21.30;51.40
79012;DHT22;68418;44.714;37.756;2023-04-03T04:03:09;21.29;51.62
79012;DHT22;68418;44.714;37.756;2023-04-03T04:04:10;21.29;51.26
79012;DHT22;68418;44.714;37.756;2023-04-03T04:05:12;21.26;51.36
79012;DHT22;68418;44.714;37.756;2023-04-03T04:06:13;21.24;51.44
79012;DHT22;68418;44.714;37.756;2023-04-03T04:07:15;21.22;51.51
79012;DHT22;68418;44.714;37.756;2023-04-03T04:08:16;21.23;51.55
79012;DHT22;68418;44.714;37.756;2023-04-03T04:09:19;21.24;51.45
79012;DHT22;68418;44.714;37.756;2023-04-03T04:10:21;21.20;51.40
79012;DHT22;68418;44.714;37.756;2023-04-03T04:11:22;21.19;51.51
79012;DHT22;68418;44.714;37.756;2023-04-03T04:12:25;21.22;51.15
79012;DHT22;68418;44.714;37.756;2023-04-03T04:13:26;21.26;51.36
79012;DHT22;68418;44.714;37.756;2023-04-03T04:14:28;21.29;51.20
79012;DHT22;68418;44.714;37.756;2023-04-03T04:15:29;21.33;51.03
79012;DHT22;68418;44.714;37.756;2023-04-03T04:16:32;21.36;50.88
79012;DHT22;68418;44.714;37.756;2023-04-03T04:17:38;21.41;50.82
79012;DHT22;68418;44.714;37.756;2023-04-03T04:18:42;21.44;50.68
79012;DHT22;68418;44.714;37.756;2023-04-03T04:19:43;21.48;50.45
79012;DHT22;68418;44.714;37.756;2023-04-03T04:20:46;21.51;50.96
79012;DHT22;68418;44.714;37.756;2023-04-03T04:21:48;21.50;50.89
79012;DHT22;68418;44.714;37.756;2023-04-03T04:22:49;21.46;50.59
79012;DHT22;68418;44.714;37.756;2023-04-03T04:23:53;21.43;50.57
79012;DHT22;68418;44.714;37.756;2023-04-03T04:24:55;21.37;50.75
79012;DHT22;68418;44.714;37.756;2023-04-03T04:25:56;21.37;50.71
79012;DHT22;68418;44.714;37.756;2023-04-03T04:26:58;21.34;50.96
79012;DHT22;68418;44.714;37.756;2023-04-03T04:27:59;21.36;51.20
79012;DHT22;68418;44.714;37.756;2023-04-03T04:29:01;21.33;51.06
79012;DHT22;68418;44.714;37.756;2023-04-03T04:30:03;21.36;51.33
79012;DHT22;68418;44.714;37.756;2023-04-03T04:31:06;21.39;51.27
79012;DHT22;68418;44.714;37.756;2023-04-03T04:32:08;21.39;51.04
79012;DHT22;68418;44.714;37.756;2023-04-03T04:33:10;21.41;51.15
79012;DHT22;68418;44.714;37.756;2023-04-03T04:34:11;21.43;52.12
79012;DHT22;68418;44.714;37.756;2023-04-03T04:35:14;21.46;51.15
79012;DHT22;68418;44.714;37.756;2023-04-03T04:37:24;21.48;51.44
79012;DHT22;68418;44.714;37.756;2023-04-03T04:38:26;21.47;51.14
79012;DHT22;68418;44.714;37.756;2023-04-03T04:39:28;21.47;51.30
79012;DHT22;68418;44.714;37.756;2023-04-03T04:40:32;21.47;51.32
79012;DHT22;68418;44.714;37.756;2023-04-03T04:41:34;21.48;51.28
79012;DHT22;68418;44.714;37.756;2023-04-03T04:42:37;21.47;51.21
79012;DHT22;68418;44.714;37.756;2023-04-03T04:43:38;21.48;51.22
79012;DHT22;68418;44.714;37.756;2023-04-03T04:44:40;21.50;51.23
79012;DHT22;68418;44.714;37.756;2023-04-03T04:45:42;21.50;51.22
79012;DHT22;68418;44.714;37.756;2023-04-03T04:46:44;21.53;51.18
79012;DHT22;68418;44.714;37.756;2023-04-03T04:47:46;21.51;51.13
79012;DHT22;68418;44.714;37.756;2023-04-03T04:48:47;21.51;51.06
79012;DHT22;68418;44.714;37.756;2023-04-03T04:49:54;21.57;51.02
79012;DHT22;68418;44.714;37.756;2023-04-03T04:50:55;21.55;51.02
79012;DHT22;68418;44.714;37.756;2023-04-03T04:51:56;21.60;50.96
79012;DHT22;68418;44.714;37.756;2023-04-03T04:53:02;21.57;50.93
79012;DHT22;68418;44.714;37.756;2023-04-03T04:54:05;21.58;50.91
79012;DHT22;68418;44.714;37.756;2023-04-03T04:55:07;21.58;50.88
79012;DHT22;68418;44.714;37.756;2023-04-03T04:56:09;21.60;50.87
79012;DHT22;68418;44.714;37.756;2023-04-03T04:57:12;21.58;50.81
79012;DHT22;68418;44.714;37.756;2023-04-03T04:58:13;21.61;50.78
79012;DHT22;68418;44.714;37.756;2023-04-03T04:59:15;21.61;50.76
79012;DHT22;68418;44.714;37.756;2023-04-03T05:00:17;21.62;50.69
79012;DHT22;68418;44.714;37.756;2023-04-03T05:01:19;21.62;50.71
79012;DHT22;68418;44.714;37.756;2023-04-03T05:02:28;21.62;50.74
79012;DHT22;68418;44.714;37.756;2023-04-03T05:03:30;21.64;50.73
79012;DHT22;68418;44.714;37.756;2023-04-03T05:04:33;21.65;50.65
79012;DHT22;68418;44.714;37.756;2023-04-03T05:05:40;21.62;50.66
79012;DHT22;68418;44.714;37.756;2023-04-03T05:06:42;21.65;50.61
79012;DHT22;68418;44.714;37.756;2023-04-03T05:07:48;21.65;50.61
79012;DHT22;68418;44.714;37.756;2023-04-03T05:08:50;21.67;50.66
79012;DHT22;68418;44.714;37.756;2023-04-03T05:09:52;21.64;50.60
79012;DHT22;68418;44.714;37.756;2023-04-03T05:10:54;21.65;50.62
79012;DHT22;68418;44.714;37.756;2023-04-03T05:11:55;21.62;50.60
79012;DHT22;68418;44.714;37.756;2023-04-03T05:13:00;21.64;50.64
79012;DHT22;68418;44.714;37.756;2023-04-03T05:14:01;21.67;50.58
79012;DHT22;68418;44.714;37.756;2023-04-03T05:15:06;21.67;50.57
79012;DHT22;68418;44.714;37.756;2023-04-03T05:16:08;21.65;50.59
79012;DHT22;68418;44.714;37.756;2023-04-03T05:17:09;21.65;50.56
79012;DHT22;68418;44.714;37.756;2023-04-03T05:18:14;21.62;50.52
79012;DHT22;68418;44.714;37.756;2023-04-03T05:19:16;21.67;50.51
79012;DHT22;68418;44.714;37.756;2023-04-03T05:20:17;21.64;50.51
79012;DHT22;68418;44.714;37.756;2023-04-03T05:21:21;21.67;50.47
79012;DHT22;68418;44.714;37.756;2023-04-03T05:22:26;21.68;50.48
79012;DHT22;68418;44.714;37.756;2023-04-03T05:23:31;21.68;50.47
79012;DHT22;68418;44.714;37.756;2023-04-03T05:24:34;21.69;50.41
79012;DHT22;68418;44.714;37.756;2023-04-03T05:25:39;21.69;50.38
79012;DHT22;68418;44.714;37.756;2023-04-03T05:26:42;21.67;50.41
79012;DHT22;68418;44.714;37.756;2023-04-03T05:27:44;21.68;50.39
79012;DHT22;68418;44.714;37.756;2023-04-03T05:28:45;21.67;50.37
79012;DHT22;68418;44.714;37.756;2023-04-03T05:29:47;21.68;50.35
79012;DHT22;68418;44.714;37.756;2023-04-03T05:30:57;21.73;50.35
79012;DHT22;68418;44.714;37.756;2023-04-03T05:32:04;21.68;50.37
79012;DHT22;68418;44.714;37.756;2023-04-03T05:33:05;21.69;50.35
79012;DHT22;68418;44.714;37.756;2023-04-03T05:34:13;21.69;50.35
79012;DHT22;68418;44.714;37.756;2023-04-03T05:35:15;21.69;50.34
79012;DHT22;68418;44.714;37.756;2023-04-03T05:36:18;21.68;50.37
79012;DHT22;68418;44.714;37.756;2023-04-03T05:37:23;21.69;50.33
79012;DHT22;68418;44.714;37.756;2023-04-03T05:38:26;21.71;50.33
79012;DHT22;68418;44.714;37.756;2023-04-03T05:39:28;21.69;50.35
79012;DHT22;68418;44.714;37.756;2023-04-03T05:40:32;21.68;50.35
79012;DHT22;68418;44.714;37.756;2023-04-03T05:41:34;21.69;50.33
79012;DHT22;68418;44.714;37.756;2023-04-03T05:42:35;21.69;50.29
79012;DHT22;68418;44.714;37.756;2023-04-03T05:43:37;21.69;50.36
79012;DHT22;68418;44.714;37.756;2023-04-03T05:44:41;21.69;50.29
79012;DHT22;68418;44.714;37.756;2023-04-03T05:45:43;21.74;50.27
79012;DHT22;68418;44.714;37.756;2023-04-03T05:46:45;21.73;50.29
79012;DHT22;68418;44.714;37.756;2023-04-03T05:47:46;21.71;50.27
79012;DHT22;68418;44.714;37.756;2023-04-03T05:48:48;21.71;50.31
79012;DHT22;68418;44.714;37.756;2023-04-03T05:49:52;21.73;50.28
79012;DHT22;68418;44.714;37.756;2023-04-03T05:50:54;21.71;50.25
79012;DHT22;68418;44.714;37.756;2023-04-03T05:51:58;21.69;50.23
79012;DHT22;68418;44.714;37.756;2023-04-03T05:53:03;21.73;50.28
79012;DHT22;68418;44.714;37.756;2023-04-03T05:54:39;21.73;50.27
79012;DHT22;68418;44.714;37.756;2023-04-03T05:55:50;21.74;50.26
79012;DHT22;68418;44.714;37.756;2023-04-03T05:56:52;21.75;50.25
79012;DHT22;68418;44.714;37.756;2023-04-03T05:57:54;21.73;50.25
79012;DHT22;68418;44.714;37.756;2023-04-03T05:58:56;21.74;50.25
79012;DHT22;68418;44.714;37.756;2023-04-03T05:59:58;21.73;50.26
79012;DHT22;68418;44.714;37.756;2023-04-03T06:01:00;21.73;50.28
79012;DHT22;68418;44.714;37.756;2023-04-03T06:02:02;21.73;50.27
79012;DHT22;68418;44.714;37.756;2023-04-03T06:03:04;21.69;50.25
79012;DHT22;68418;44.714;37.756;2023-04-03T06:04:06;21.71;50.27
79012;DHT22;68418;44.714;37.756;2023-04-03T06:05:10;21.73;50.28
79012;DHT22;68418;44.714;37.756;2023-04-03T06:06:14;21.69;50.27
79012;DHT22;68418;44.714;37.756;2023-04-03T06:07:21;21.69;50.28
79012;DHT22;68418;44.714;37.756;2023-04-03T06:08:24;21.73;50.27
79012;DHT22;68418;44.714;37.756;2023-04-03T06:09:27;21.71;50.30
79012;DHT22;68418;44.714;37.756;2023-04-03T06:10:31;21.73;50.24
79012;DHT22;68418;44.714;37.756;2023-04-03T06:11:33;21.73;50.25
79012;DHT22;68418;44.714;37.756;2023-04-03T06:12:34;21.73;50.29
79012;DHT22;68418;44.714;37.756;2023-04-03T06:13:36;21.74;50.28
79012;DHT22;68418;44.714;37.756;2023-04-03T06:14:38;21.74;50.26
79012;DHT22;68418;44.714;37.756;2023-04-03T06:15:39;21.73;50.28
79012;DHT22;68418;44.714;37.756;2023-04-03T06:16:43;21.73;50.28
79012;DHT22;68418;44.714;37.756;2023-04-03T06:17:45;21.73;50.25
79012;DHT22;68418;44.714;37.756;2023-04-03T06:18:47;21.74;50.28
79012;DHT22;68418;44.714;37.756;2023-04-03T06:19:48;21.74;50.25
79012;DHT22;68418;44.714;37.756;2023-04-03T06:20:50;21.73;50.20
79012;DHT22;68418;44.714;37.756;2023-04-03T06:21:52;21.75;50.25
79012;DHT22;68418;44.714;37.756;2023-04-03T06:22:53;21.74;50.21
79012;DHT22;68418;44.714;37.756;2023-04-03T06:23:54;21.73;50.25
79012;DHT22;68418;44.714;37.756;2023-04-03T06:24:57;21.75;50.19
79012;DHT22;68418;44.714;37.756;2023-04-03T06:25:58;21.75;50.19
79012;DHT22;68418;44.714;37.756;2023-04-03T06:26:59;21.75;50.17
79012;DHT22;68418;44.714;37.756;2023-04-03T06:28:01;21.75;50.19
79012;DHT22;68418;44.714;37.756;2023-04-03T06:29:02;21.75;50.19
79012;DHT22;68418;44.714;37.756;2023-04-03T06:30:05;21.75;50.16
79012;DHT22;68418;44.714;37.756;2023-04-03T06:31:07;21.73;50.15
79012;DHT22;68418;44.714;37.756;2023-04-03T06:32:09;21.74;50.13
79012;DHT22;68418;44.714;37.756;2023-04-03T06:33:11;21.75;50.17
79012;DHT22;68418;44.714;37.756;2023-04-03T06:34:13;21.77;50.18